Página principal
METAR-TAF:

METAR-TAF

Aeroportos :

Aeroporto Internacional Rei Abdulaziz

Jidá, Arábia Saudita

latitude: 21-42N, longitude: 039-11E, altura: 15 m

Observação actual do tempo

O boletim foi feito há 32 minutos, às 10:00 UTC
Vento 15 kt de nor-noroeste
Temperatura 28°C
Humidade 22%
Pressão 1015 hPa
Visibilidade 10 km ou mais
Nuvens dispersasa uma altura de 4000 ft
Nuvens fragmentadasa uma altura de 8000 ft

METAR: OEJN 231000Z 33015KT 9999 SCT040 BKN080 28/04 Q1015 NOSIG

Hora: 13:32 (10:32 UTC)

Previsão

O boletim foi feito há 5 horas e 32 minutos, às 05:00 UTC
Previsão válida de 23 às 06 UTC a 24 às 12 UTC
Vento 14 kt de norte
Visibilidade 10 km ou mais
sem nuvens abaixo de 1500 metros e sem cumulonimbus
Tornando-se
de 23 às 18 UTC a 23 às 20 UTC
Vento 10 kt de nordeste
Temporariamente
de 23 às 18 UTC a 24 às 00 UTC
Visibilidade: 5000 m
Poucas nuvensa uma altura de 4000 ft
poeira extensa

TAF: OEJN 230500Z 2306/2412 35014KT CAVOK BECMG 2318/2320 04010KT TEMPO 2318/2400 5000 DU FEW040

Observações e previsões do tempo de mais de 4000 aeroportos (mensagens METAR e TAF).

As estações disponíveis são os pontos amarelos e vermelhos sobre o mapa.

Mova o rato sobre o mapa para ver o nome da estação.

Depois clique no ponto para visualizar as observações e previsões meteorológicas.

Para alterar o mapa : clique nos botões verdes com uma cruz preta para aumentar o zoom; no botão verde com uma pitada de zoom; ou nas setas verdes para mapas adjacentes.


METAR-TAF: